CMA CGM Aristote — MRPN4 — position and weather

sailwx.info

Track history (hours):
 
Tides and Currents Weather Stations Pressure Air Temp Water Temp Dewpoint Dewpoint Depression Visibility Wind Speed Wind Dir Waves Ship Positions

CMA CGM Aristote

Last reported at 2018-Feb-17 08:58 UTC. Time now 2018-Feb-18 01:34 UTC.
Position N 30°07' W 011°03'.

Length 170 m; draft 7.2 m.

Type: Cargo ship. MMSI: 235054581.

Date/timePositionNaut miles runAvg speedWind from/ knotsBaromVisibWave heightAir tempDewpointWater temp
2018-Feb-17 08:58N 30°07' W 011°03'817.6
2018-Feb-17 08:30N 29°59' W 011°07'1117.6
2018-Feb-17 07:55N 29°50' W 011°13'1617.4
2018-Feb-17 07:00N 29°36' W 011°21'5016.9
2018-Feb-17 04:04N 28°56' W 011°55'117.3
2018-Feb-17 04:00N 28°55' W 011°56'917.5
2018-Feb-17 03:30N 28°49' W 012°03'917.7
2018-Feb-17 02:58N 28°44' W 012°12'917.8
2018-Feb-17 02:28N 28°40' W 012°21'2117.5
2018-Feb-17 01:16N 28°29' W 012°41'517.4
2018-Feb-17 01:00N 28°27' W 012°46'917.5
2018-Feb-17 00:30N 28°22' W 012°55'917.3
2018-Feb-16 23:59N 28°18' W 013°04'817.7
2018-Feb-16 23:31N 28°14' W 013°12'917.8
2018-Feb-16 23:00N 28°09' W 013°20'1018.2
2018-Feb-16 22:28N 28°01' W 013°27'1018.2
2018-Feb-16 21:56N 27°53' W 013°33'818.0
2018-Feb-16 21:29N 27°46' W 013°38'917.9
2018-Feb-16 21:00N 27°38' W 013°43'918.0
2018-Feb-16 20:30N 27°31' W 013°48'918.2
2018-Feb-16 20:01N 27°23' W 013°54'918.5
2018-Feb-16 19:30N 27°16' W 013°60'918.1
2018-Feb-16 19:00N 27°09' W 014°07'  
2018-Feb-11 12:36N 04°56' E 000°17'818.4
2018-Feb-11 12:09N 04°60' E 000°24'318.3
2018-Feb-11 12:00N 05°01' E 000°27'918.3
2018-Feb-11 11:29N 05°05' E 000°36'918.5
2018-Feb-11 10:59N 05°09' E 000°44'27 0.7
2018-Feb-09 17:00N 05°31' E 000°28'1020.1
2018-Feb-09 16:30N 05°33' E 000°18'816.3
2018-Feb-09 16:00N 05°34' E 000°10'613.0
2018-Feb-09 15:30N 05°37' E 000°05'4 7.8
2018-Feb-09 15:00N 05°38' E 000°01'0 0.1
2018-Feb-09 13:30N 05°38' E 000°01'0 0.0
2018-Feb-09 10:30N 05°38' E 000°01'0 0.0
2018-Feb-09 09:00N 05°38' E 000°01'0 0.0
2018-Feb-09 05:30N 05°38' E 000°01'0 0.0
2018-Feb-09 03:30N 05°38' E 000°01'0 0.0
2018-Feb-09 02:00N 05°38' E 000°01'0 0.0
2018-Feb-09 01:30N 05°38' E 000°01'0 0.0
2018-Feb-09 00:30N 05°38' E 000°01'0 0.0
2018-Feb-09 00:00N 05°38' E 000°01'0 0.0
2018-Feb-08 23:30N 05°38' E 000°01'0 0.0
2018-Feb-08 23:00N 05°38' E 000°01'0 0.0
2018-Feb-08 22:30N 05°38' E 000°01'0 0.0
2018-Feb-08 22:00N 05°38' E 000°01'0 0.0
2018-Feb-08 21:30N 05°38' E 000°01'0 0.0
2018-Feb-08 21:00N 05°38' E 000°01'0 0.0
2018-Feb-08 20:30N 05°38' E 000°01'0 0.0
2018-Feb-08 20:00N 05°38' E 000°01'0 0.6
2018-Feb-08 19:30N 05°38' E 000°01'3 1.7
2018-Feb-08 18:00N 05°38' E 000°03'12 8.2
2018-Feb-08 16:30N 05°34' E 000°15'5 5.2
2018-Feb-08 15:30N 05°33' E 000°20'1 1.6
2018-Feb-08 15:00N 05°32' E 000°20'2 1.6
2018-Feb-08 14:00N 05°31' E 000°19'2 1.5
2018-Feb-08 12:30N 05°29' E 000°17'2 1.4
2018-Feb-08 11:00N 05°28' E 000°16'1 1.4
2018-Feb-08 10:30N 05°27' E 000°15'1 1.3
2018-Feb-08 10:00N 05°27' E 000°15'1 1.3
2018-Feb-08 09:00N 05°26' E 000°14'1 1.4
2018-Feb-08 08:30N 05°25' E 000°13'1 1.3
2018-Feb-08 08:00N 05°25' E 000°13'1 1.1
2018-Feb-08 07:00N 05°24' E 000°12'1 1.0
2018-Feb-08 06:00N 05°23' E 000°12'1 1.1
2018-Feb-08 05:00N 05°22' E 000°11'1 1.1
2018-Feb-08 04:30N 05°22' E 000°10'2 1.2
2018-Feb-08 02:30N 05°20' E 000°09'1 1.4
2018-Feb-08 01:30N 05°19' E 000°09'1 1.3
2018-Feb-08 00:59N 05°18' E 000°09'1 1.3
2018-Feb-08 00:30N 05°17' E 000°09'1 1.3
2018-Feb-08 00:00N 05°17' E 000°08'1 1.4
2018-Feb-07 23:27N 05°16' E 000°08'1 1.0
2018-Feb-07 22:57N 05°16' E 000°08'3 5.8
2018-Feb-07 22:30N 05°17' E 000°06'510.5
2018-Feb-07 22:00N 05°20' E 000°02'5 9.4
2018-Feb-07 21:31N 05°18' W 000°02'  
Track history (hours):
 
Tides and Currents Weather Stations Pressure Air Temp Water Temp Dewpoint Dewpoint Depression Visibility Wind Speed Wind Dir Waves Ship Positions

CMA CGM Aristote

Last reported at 2018-Feb-17 08:58 UTC. Time now 2018-Feb-18 01:34 UTC.
Position N 30°07' W 011°03'.

Length 170 m; draft 7.2 m.

Type: Cargo ship. MMSI: 235054581.

Date/timePositionNaut miles runAvg speedWind from/ knotsBaromVisibWave heightAir tempDewpointWater temp
2018-Feb-17 08:58N 30°07' W 011°03'817.6
2018-Feb-17 08:30N 29°59' W 011°07'1117.6
2018-Feb-17 07:55N 29°50' W 011°13'1617.4
2018-Feb-17 07:00N 29°36' W 011°21'5016.9
2018-Feb-17 04:04N 28°56' W 011°55'117.3
2018-Feb-17 04:00N 28°55' W 011°56'917.5
2018-Feb-17 03:30N 28°49' W 012°03'917.7
2018-Feb-17 02:58N 28°44' W 012°12'917.8
2018-Feb-17 02:28N 28°40' W 012°21'2117.5
2018-Feb-17 01:16N 28°29' W 012°41'517.4
2018-Feb-17 01:00N 28°27' W 012°46'917.5
2018-Feb-17 00:30N 28°22' W 012°55'917.3
2018-Feb-16 23:59N 28°18' W 013°04'817.7
2018-Feb-16 23:31N 28°14' W 013°12'917.8
2018-Feb-16 23:00N 28°09' W 013°20'1018.2
2018-Feb-16 22:28N 28°01' W 013°27'1018.2
2018-Feb-16 21:56N 27°53' W 013°33'818.0
2018-Feb-16 21:29N 27°46' W 013°38'917.9
2018-Feb-16 21:00N 27°38' W 013°43'918.0
2018-Feb-16 20:30N 27°31' W 013°48'918.2
2018-Feb-16 20:01N 27°23' W 013°54'918.5
2018-Feb-16 19:30N 27°16' W 013°60'918.1
2018-Feb-16 19:00N 27°09' W 014°07'  
2018-Feb-11 12:36N 04°56' E 000°17'818.4
2018-Feb-11 12:09N 04°60' E 000°24'318.3
2018-Feb-11 12:00N 05°01' E 000°27'918.3
2018-Feb-11 11:29N 05°05' E 000°36'918.5
2018-Feb-11 10:59N 05°09' E 000°44'27 0.7
2018-Feb-09 17:00N 05°31' E 000°28'1020.1
2018-Feb-09 16:30N 05°33' E 000°18'816.3
2018-Feb-09 16:00N 05°34' E 000°10'613.0
2018-Feb-09 15:30N 05°37' E 000°05'4 7.8
2018-Feb-09 15:00N 05°38' E 000°01'0 0.1
2018-Feb-09 13:30N 05°38' E 000°01'0 0.0
2018-Feb-09 10:30N 05°38' E 000°01'0 0.0
2018-Feb-09 09:00N 05°38' E 000°01'0 0.0
2018-Feb-09 05:30N 05°38' E 000°01'0 0.0
2018-Feb-09 03:30N 05°38' E 000°01'0 0.0
2018-Feb-09 02:00N 05°38' E 000°01'0 0.0
2018-Feb-09 01:30N 05°38' E 000°01'0 0.0
2018-Feb-09 00:30N 05°38' E 000°01'0 0.0
2018-Feb-09 00:00N 05°38' E 000°01'0 0.0
2018-Feb-08 23:30N 05°38' E 000°01'0 0.0
2018-Feb-08 23:00N 05°38' E 000°01'0 0.0
2018-Feb-08 22:30N 05°38' E 000°01'0 0.0
2018-Feb-08 22:00N 05°38' E 000°01'0 0.0
2018-Feb-08 21:30N 05°38' E 000°01'0 0.0
2018-Feb-08 21:00N 05°38' E 000°01'0 0.0
2018-Feb-08 20:30N 05°38' E 000°01'0 0.0
2018-Feb-08 20:00N 05°38' E 000°01'0 0.6
2018-Feb-08 19:30N 05°38' E 000°01'3 1.7
2018-Feb-08 18:00N 05°38' E 000°03'12 8.2
2018-Feb-08 16:30N 05°34' E 000°15'5 5.2
2018-Feb-08 15:30N 05°33' E 000°20'1 1.6
2018-Feb-08 15:00N 05°32' E 000°20'2 1.6
2018-Feb-08 14:00N 05°31' E 000°19'2 1.5
2018-Feb-08 12:30N 05°29' E 000°17'2 1.4
2018-Feb-08 11:00N 05°28' E 000°16'1 1.4
2018-Feb-08 10:30N 05°27' E 000°15'1 1.3
2018-Feb-08 10:00N 05°27' E 000°15'1 1.3
2018-Feb-08 09:00N 05°26' E 000°14'1 1.4
2018-Feb-08 08:30N 05°25' E 000°13'1 1.3
2018-Feb-08 08:00N 05°25' E 000°13'1 1.1
2018-Feb-08 07:00N 05°24' E 000°12'1 1.0
2018-Feb-08 06:00N 05°23' E 000°12'1 1.1
2018-Feb-08 05:00N 05°22' E 000°11'1 1.1
2018-Feb-08 04:30N 05°22' E 000°10'2 1.2
2018-Feb-08 02:30N 05°20' E 000°09'1 1.4
2018-Feb-08 01:30N 05°19' E 000°09'1 1.3
2018-Feb-08 00:59N 05°18' E 000°09'1 1.3
2018-Feb-08 00:30N 05°17' E 000°09'1 1.3
2018-Feb-08 00:00N 05°17' E 000°08'1 1.4
2018-Feb-07 23:27N 05°16' E 000°08'1 1.0
2018-Feb-07 22:57N 05°16' E 000°08'3 5.8
2018-Feb-07 22:30N 05°17' E 000°06'510.5
2018-Feb-07 22:00N 05°20' E 000°02'5 9.4
2018-Feb-07 21:31N 05°18' W 000°02'  

Dump ship's entire track history